Time;durP1;ratioP1;P1;durP2;ratioP2;P2;SDS_P1;SDS_P2;PMS_P1;PMS_P2;Temp;Humidity;BMP_temperature;BMP_pressure;BME280_temperature;BME280_humidity;BME280_pressure;Samples;Min_cycle;Max_cycle;Signal;HPM_P1;HPM_P2
2021/10/02 00:41:11;;;;;;;;;;;18.80;46.10;;;;;;4330150;33;20062;-36
2021/10/02 00:46:22;;;;;;;;;;;18.70;46.10;;;;;;4329888;33;19982;-37
2021/10/02 00:48:48;;;;;;;;;;;18.70;46.10;;;;;;4330026;33;19986;-37
2021/10/02 00:51:15;;;;;;;;;;;18.80;46.10;;;;;;4330076;33;19970;-37
2021/10/02 00:53:41;;;;;;;;;;;18.70;46.00;;;;;;4329030;33;20083;-37
2021/10/02 00:56:07;;;;;;;;;;;18.70;46.00;;;;;;4330099;33;19967;-37
2021/10/02 00:58:33;;;;;;;;;;;18.70;45.90;;;;;;4329744;33;20368;-37
2021/10/02 01:01:00;;;;;;;;;;;18.70;45.80;;;;;;4329538;33;20497;-37
2021/10/02 01:04:10;;;;;;;;;;;18.70;45.90;;;;;;4328429;33;20034;-37
2021/10/02 01:07:07;;;;;;;;;;;18.70;45.90;;;;;;4271403;33;20011;-38
2021/10/02 01:09:46;;;;;;;;;;;18.70;45.90;;;;;;4271899;33;19983;-38
2021/10/02 01:12:30;;;;;;;;;;;18.60;45.80;;;;;;4320785;33;20105;-38
2021/10/02 01:15:01;;;;;;;;;;;18.60;45.80;;;;;;4333539;32;20048;-37
2021/10/02 01:17:38;;;;;;;;;;;18.50;45.70;;;;;;4359305;32;19954;-37
2021/10/02 01:20:07;;;;;;;;;;;18.40;45.80;;;;;;4359699;32;20375;-36
2021/10/02 01:23:04;;;;;;;;;;;18.30;45.80;;;;;;4359135;32;20164;-37
2021/10/02 01:26:02;;;;;;;;;;;18.20;46.00;;;;;;4358561;32;19962;-38
2021/10/02 01:28:28;;;;;;;;;;;18.10;46.10;;;;;;4358997;32;19982;-37
2021/10/02 01:33:41;;;;;;;;;;;18.10;46.20;;;;;;4346324;32;20385;-37
2021/10/02 01:47:20;;;;;;;;;;;18.10;46.20;;;;;;4336629;32;20048;-37
2021/10/02 01:49:52;;;;;;;;;;;18.10;46.30;;;;;;4359786;32;20058;-37
2021/10/02 01:52:21;;;;;;;;;;;18.10;46.30;;;;;;4373953;32;20389;-37
2021/10/02 01:54:47;;;;;;;;;;;18.10;46.40;;;;;;4347718;32;20089;-37
2021/10/02 01:57:14;;;;;;;;;;;18.10;46.60;;;;;;4335541;32;20127;-37
2021/10/02 01:59:40;;;;;;;;;;;18.10;46.50;;;;;;4373569;32;19958;-38
2021/10/02 02:02:06;;;;;;;;;;;18.10;46.40;;;;;;4347330;32;19966;-37
2021/10/02 02:04:33;;;;;;;;;;;18.20;46.40;;;;;;4373932;32;19973;-37
2021/10/02 02:06:59;;;;;;;;;;;18.20;46.30;;;;;;4359802;32;20029;-36
2021/10/02 02:09:30;;;;;;;;;;;18.20;46.30;;;;;;4359330;32;19981;-37
2021/10/02 02:11:56;;;;;;;;;;;18.20;46.20;;;;;;4373459;32;19958;-37
2021/10/02 02:14:24;;;;;;;;;;;18.20;46.30;;;;;;4373572;32;19999;-37
2021/10/02 02:16:50;;;;;;;;;;;18.30;46.30;;;;;;4347291;32;20624;-37
2021/10/02 02:19:17;;;;;;;;;;;18.30;46.30;;;;;;4347750;32;19965;-36
2021/10/02 02:21:45;;;;;;;;;;;18.30;46.20;;;;;;4373380;32;19965;-37
2021/10/02 02:24:12;;;;;;;;;;;18.30;46.20;;;;;;4347349;32;19962;-37
2021/10/02 02:26:38;;;;;;;;;;;18.30;46.20;;;;;;4373500;32;20035;-37
2021/10/02 02:29:05;;;;;;;;;;;18.40;46.50;;;;;;4373634;32;19974;-37
2021/10/02 02:31:32;;;;;;;;;;;18.30;46.70;;;;;;4359124;32;20485;-38
2021/10/02 02:33:59;;;;;;;;;;;18.10;46.90;;;;;;4372998;32;20397;-37
2021/10/02 02:36:25;;;;;;;;;;;17.90;47.00;;;;;;4359404;32;19966;-38
2021/10/02 02:38:52;;;;;;;;;;;17.70;47.10;;;;;;4373312;32;19973;-37
2021/10/02 02:41:18;;;;;;;;;;;17.60;47.30;;;;;;4373395;32;19993;-39
2021/10/02 02:43:44;;;;;;;;;;;17.50;47.50;;;;;;4373265;32;19973;-37
2021/10/02 02:46:17;;;;;;;;;;;17.40;47.90;;;;;;4373282;32;19974;-39
2021/10/02 02:49:02;;;;;;;;;;;17.30;48.00;;;;;;4352068;32;19982;-38
2021/10/02 02:51:35;;;;;;;;;;;17.30;48.10;;;;;;4361578;32;19990;-38
2021/10/02 02:54:19;;;;;;;;;;;17.30;48.20;;;;;;4347906;32;20055;-37
2021/10/02 02:56:50;;;;;;;;;;;17.30;48.70;;;;;;4360933;32;20384;-37
2021/10/02 02:59:27;;;;;;;;;;;17.20;48.90;;;;;;4360873;32;20394;-38
2021/10/02 03:01:53;;;;;;;;;;;17.20;49.20;;;;;;4361206;32;19969;-38
2021/10/02 03:04:19;;;;;;;;;;;17.20;49.30;;;;;;4334884;32;20371;-39
2021/10/02 03:06:50;;;;;;;;;;;17.20;49.30;;;;;;4346865;32;19962;-38
2021/10/02 03:09:16;;;;;;;;;;;17.20;49.50;;;;;;4360979;32;19976;-37
2021/10/02 03:11:46;;;;;;;;;;;17.20;50.30;;;;;;4347487;32;20079;-37
2021/10/02 03:14:12;;;;;;;;;;;17.20;49.70;;;;;;4335149;32;20415;-38
2021/10/02 03:16:38;;;;;;;;;;;17.20;49.80;;;;;;4360775;32;19962;-37
2021/10/02 03:19:05;;;;;;;;;;;17.20;49.80;;;;;;4360852;32;19962;-38
2021/10/02 03:21:32;;;;;;;;;;;17.20;49.90;;;;;;4360777;32;19970;-38
2021/10/02 03:23:58;;;;;;;;;;;17.20;50.00;;;;;;4347132;32;20054;-38
2021/10/02 03:26:24;;;;;;;;;;;17.20;50.10;;;;;;4346876;32;19962;-36
2021/10/02 03:28:50;;;;;;;;;;;17.20;50.10;;;;;;4360877;32;20508;-39
2021/10/02 03:31:17;;;;;;;;;;;17.30;50.10;;;;;;4334871;32;20504;-38
2021/10/02 03:33:44;;;;;;;;;;;17.30;50.10;;;;;;4360838;32;19974;-38
2021/10/02 03:36:10;;;;;;;;;;;17.30;50.10;;;;;;4360478;32;20374;-38
2021/10/02 03:38:37;;;;;;;;;;;17.40;50.10;;;;;;4360300;32;19972;-37
2021/10/02 03:41:03;;;;;;;;;;;17.50;50.10;;;;;;4360523;32;20355;-37
2021/10/02 03:43:34;;;;;;;;;;;17.50;50.00;;;;;;4360934;32;20009;-37
2021/10/02 03:46:00;;;;;;;;;;;17.50;49.90;;;;;;4360469;32;19996;-37
2021/10/02 03:48:27;;;;;;;;;;;17.60;49.80;;;;;;4367263;32;20082;-38
2021/10/02 03:50:53;;;;;;;;;;;17.70;49.70;;;;;;4375252;32;20427;-37
2021/10/02 03:53:19;;;;;;;;;;;17.80;49.60;;;;;;4375188;32;19982;-37
2021/10/02 03:55:45;;;;;;;;;;;17.80;49.50;;;;;;4361105;32;20514;-37
2021/10/02 03:58:12;;;;;;;;;;;17.90;49.40;;;;;;4374913;32;19972;-38
2021/10/02 04:00:38;;;;;;;;;;;17.90;49.30;;;;;;4374507;32;19986;-38
2021/10/02 04:03:04;;;;;;;;;;;18.00;49.20;;;;;;4375247;32;19970;-38
2021/10/02 04:05:30;;;;;;;;;;;18.00;49.10;;;;;;4375010;32;20028;-35
2021/10/02 04:07:56;;;;;;;;;;;18.00;49.00;;;;;;4375288;32;20418;-37
2021/10/02 04:10:22;;;;;;;;;;;18.00;48.90;;;;;;4375464;32;19962;-37
2021/10/02 04:12:49;;;;;;;;;;;18.10;49.00;;;;;;4375123;32;20176;-37
2021/10/02 04:15:15;;;;;;;;;;;18.00;48.90;;;;;;4374655;32;20406;-37
2021/10/02 04:17:41;;;;;;;;;;;18.00;48.90;;;;;;4375462;32;19993;-38
2021/10/02 04:20:08;;;;;;;;;;;18.00;48.90;;;;;;4375034;32;19972;-38
2021/10/02 04:22:35;;;;;;;;;;;18.00;48.80;;;;;;4374865;32;19997;-38
2021/10/02 04:25:01;;;;;;;;;;;18.10;48.90;;;;;;4374977;32;19962;-38
2021/10/02 04:27:27;;;;;;;;;;;18.10;48.60;;;;;;4360785;32;19966;-38
2021/10/02 04:29:53;;;;;;;;;;;18.20;48.60;;;;;;4375345;32;19973;-37
2021/10/02 04:32:20;;;;;;;;;;;18.20;48.50;;;;;;4361177;32;20426;-38
2021/10/02 04:34:46;;;;;;;;;;;18.20;48.40;;;;;;4374293;32;20367;-38
2021/10/02 04:37:12;;;;;;;;;;;18.20;48.40;;;;;;4374265;32;20419;-38
2021/10/02 04:39:38;;;;;;;;;;;18.30;48.30;;;;;;4360661;32;20390;-38
2021/10/02 04:42:05;;;;;;;;;;;18.30;48.20;;;;;;4374635;32;19990;-37
2021/10/02 04:44:32;;;;;;;;;;;18.30;48.10;;;;;;4374658;32;19967;-37
2021/10/02 04:46:58;;;;;;;;;;;18.40;47.90;;;;;;4374712;32;19967;-37
2021/10/02 04:49:24;;;;;;;;;;;18.50;47.80;;;;;;4362051;32;20050;-37
2021/10/02 04:51:51;;;;;;;;;;;18.50;47.50;;;;;;4359228;32;20420;-37
2021/10/02 04:54:17;;;;;;;;;;;18.60;47.30;;;;;;4359700;32;20028;-38
2021/10/02 04:56:44;;;;;;;;;;;18.70;47.20;;;;;;4359571;32;19994;-38
2021/10/02 04:59:10;;;;;;;;;;;18.80;47.00;;;;;;4359400;32;20011;-38
2021/10/02 05:01:38;;;;;;;;;;;19.00;46.50;;;;;;4359384;32;20382;-37
2021/10/02 05:04:05;;;;;;;;;;;19.10;46.10;;;;;;4359299;32;19966;-39
2021/10/02 05:06:31;;;;;;;;;;;19.20;45.70;;;;;;4359504;32;19966;-38
2021/10/02 05:08:57;;;;;;;;;;;19.30;45.40;;;;;;4359623;32;20131;-38
2021/10/02 05:11:23;;;;;;;;;;;19.40;45.20;;;;;;4359234;32;20056;-39
2021/10/02 05:13:50;;;;;;;;;;;19.60;44.90;;;;;;4359408;32;20002;-38
2021/10/02 05:16:16;;;;;;;;;;;19.70;44.50;;;;;;4359208;32;19978;-37
2021/10/02 05:18:42;;;;;;;;;;;19.80;44.20;;;;;;4359282;32;20067;-38
2021/10/02 05:21:08;;;;;;;;;;;19.90;44.00;;;;;;4359120;32;20445;-37
2021/10/02 05:23:35;;;;;;;;;;;20.00;43.80;;;;;;4359108;32;19998;-38
2021/10/02 05:26:01;;;;;;;;;;;20.10;43.40;;;;;;4359152;32;19962;-37
2021/10/02 05:28:27;;;;;;;;;;;20.30;43.50;;;;;;4359301;32;19963;-38
2021/10/02 05:30:53;;;;;;;;;;;20.40;43.20;;;;;;4359145;32;20430;-37
2021/10/02 05:33:20;;;;;;;;;;;20.50;43.00;;;;;;4345359;32;20474;-38
2021/10/02 05:35:46;;;;;;;;;;;20.60;42.40;;;;;;4311505;33;20010;-37
2021/10/02 05:38:13;;;;;;;;;;;20.60;42.00;;;;;;4312450;33;19983;-38
2021/10/02 05:40:40;;;;;;;;;;;20.70;42.10;;;;;;4311746;33;19989;-38
2021/10/02 05:43:06;;;;;;;;;;;20.90;41.90;;;;;;4311950;33;20105;-42
2021/10/02 05:45:32;;;;;;;;;;;21.00;41.50;;;;;;4311726;33;20028;-37
2021/10/02 05:47:58;;;;;;;;;;;21.00;41.30;;;;;;4308076;33;19970;-37
2021/10/02 05:50:25;;;;;;;;;;;21.10;41.20;;;;;;4341508;33;19981;-38
2021/10/02 05:52:51;;;;;;;;;;;21.20;41.30;;;;;;4341109;33;19971;-38
2021/10/02 05:55:17;;;;;;;;;;;21.30;41.00;;;;;;4340938;33;19986;-36
2021/10/02 05:57:43;;;;;;;;;;;21.30;40.60;;;;;;4340892;33;20006;-38
2021/10/02 06:00:10;;;;;;;;;;;21.40;40.70;;;;;;4340975;33;19981;-37
2021/10/02 06:02:36;;;;;;;;;;;21.40;40.80;;;;;;4340903;33;20108;-37
2021/10/02 06:05:03;;;;;;;;;;;21.50;40.90;;;;;;4341807;33;19982;-37
2021/10/02 06:07:29;;;;;;;;;;;21.60;40.90;;;;;;4355694;32;20423;-37
2021/10/02 06:09:55;;;;;;;;;;;21.70;40.80;;;;;;4358468;32;19978;-37
2021/10/02 06:12:22;;;;;;;;;;;21.80;40.80;;;;;;4358872;32;20403;-37
2021/10/02 06:14:48;;;;;;;;;;;21.90;40.70;;;;;;4358407;32;20005;-37
2021/10/02 06:17:14;;;;;;;;;;;22.00;40.40;;;;;;4358808;32;19986;-37
2021/10/02 06:19:40;;;;;;;;;;;22.00;40.10;;;;;;4358296;32;19983;-38
2021/10/02 06:22:06;;;;;;;;;;;22.00;40.00;;;;;;4358198;32;20523;-38
2021/10/02 06:24:34;;;;;;;;;;;21.90;39.70;;;;;;4358651;32;19977;-37
2021/10/02 06:27:00;;;;;;;;;;;21.80;40.00;;;;;;4358593;32;20501;-39
2021/10/02 06:29:27;;;;;;;;;;;21.70;40.00;;;;;;4358108;32;20124;-38
2021/10/02 06:31:53;;;;;;;;;;;21.60;40.10;;;;;;4358016;32;19986;-37
2021/10/02 06:34:19;;;;;;;;;;;21.50;40.10;;;;;;4357938;32;20506;-37
2021/10/02 06:36:45;;;;;;;;;;;21.50;40.20;;;;;;4358150;32;20391;-38
2021/10/02 06:39:11;;;;;;;;;;;21.50;40.40;;;;;;4358092;32;19966;-37
2021/10/02 06:41:38;;;;;;;;;;;21.50;40.40;;;;;;4357814;32;20462;-36
2021/10/02 06:44:05;;;;;;;;;;;21.60;40.20;;;;;;4358470;32;19966;-37
2021/10/02 06:46:31;;;;;;;;;;;21.60;40.20;;;;;;4358185;32;20050;-38
2021/10/02 06:48:57;;;;;;;;;;;21.60;40.20;;;;;;4368425;32;20347;-37
2021/10/02 06:51:24;;;;;;;;;;;21.70;40.20;;;;;;4373198;32;19974;-37
2021/10/02 06:53:53;;;;;;;;;;;21.70;40.20;;;;;;4373258;32;19974;-37
2021/10/02 06:56:19;;;;;;;;;;;21.70;40.10;;;;;;4372941;32;20434;-37
2021/10/02 06:58:45;;;;;;;;;;;21.80;40.10;;;;;;4373289;32;19962;-37
2021/10/02 07:01:11;;;;;;;;;;;21.80;39.90;;;;;;4359276;32;19963;-37
2021/10/02 07:03:37;;;;;;;;;;;21.80;39.70;;;;;;4372950;32;19966;-37
2021/10/02 07:06:04;;;;;;;;;;;21.80;39.70;;;;;;4372961;32;19958;-37
2021/10/02 07:08:30;;;;;;;;;;;21.90;39.80;;;;;;4373132;32;19981;-36
2021/10/02 07:10:56;;;;;;;;;;;22.00;39.80;;;;;;4373142;32;19954;-37
2021/10/02 07:13:22;;;;;;;;;;;22.10;39.70;;;;;;4372809;32;19993;-38
2021/10/02 07:15:48;;;;;;;;;;;22.30;39.70;;;;;;4372786;32;20043;-37
2021/10/02 07:18:17;;;;;;;;;;;22.50;39.40;;;;;;4372443;32;19973;-37
2021/10/02 07:20:43;;;;;;;;;;;22.50;38.80;;;;;;4372923;32;20389;-37
2021/10/02 07:23:09;;;;;;;;;;;22.40;38.70;;;;;;4372951;32;19981;-39
2021/10/02 07:25:36;;;;;;;;;;;22.30;38.90;;;;;;4373197;32;19981;-37
2021/10/02 07:28:02;;;;;;;;;;;22.10;39.30;;;;;;4373048;32;20070;-38
2021/10/02 07:30:28;;;;;;;;;;;22.00;39.50;;;;;;4372687;32;20048;-37
2021/10/02 07:32:54;;;;;;;;;;;21.90;39.70;;;;;;4372542;32;20394;-38
2021/10/02 07:35:21;;;;;;;;;;;21.70;39.70;;;;;;4373222;32;19981;-37
2021/10/02 07:37:47;;;;;;;;;;;21.50;39.80;;;;;;4375169;32;20371;-38
2021/10/02 07:40:14;;;;;;;;;;;21.30;40.00;;;;;;4375121;32;19998;-39
2021/10/02 07:42:41;;;;;;;;;;;21.20;40.40;;;;;;4375068;32;20488;-37
2021/10/02 07:45:09;;;;;;;;;;;21.10;40.60;;;;;;4375617;32;20402;-37
2021/10/02 07:47:40;;;;;;;;;;;21.00;40.60;;;;;;4373192;32;19958;-38
2021/10/02 07:50:11;;;;;;;;;;;20.80;40.90;;;;;;4346638;32;20384;-38
2021/10/02 07:52:38;;;;;;;;;;;20.70;41.00;;;;;;4360490;32;20046;-38
2021/10/02 07:55:07;;;;;;;;;;;20.60;41.30;;;;;;4360253;32;20059;-38
2021/10/02 07:57:36;;;;;;;;;;;20.60;41.40;;;;;;4360605;32;19966;-38
2021/10/02 08:00:06;;;;;;;;;;;20.60;41.40;;;;;;4359766;32;19970;-38
2021/10/02 08:02:33;;;;;;;;;;;20.50;41.60;;;;;;4360186;32;20434;-38
2021/10/02 08:04:59;;;;;;;;;;;20.40;41.60;;;;;;4333867;32;19969;-38
2021/10/02 08:07:26;;;;;;;;;;;20.40;41.80;;;;;;4346254;32;19997;-38
2021/10/02 08:09:52;;;;;;;;;;;20.30;41.80;;;;;;4360150;32;20074;-37
2021/10/02 08:12:18;;;;;;;;;;;20.30;41.90;;;;;;4346024;32;19998;-40
2021/10/02 08:14:45;;;;;;;;;;;20.20;42.00;;;;;;4359340;32;20075;-38
2021/10/02 08:17:11;;;;;;;;;;;20.20;42.00;;;;;;4360022;32;20046;-38
2021/10/02 08:19:37;;;;;;;;;;;20.10;42.10;;;;;;4345619;32;20046;-37
2021/10/02 08:22:04;;;;;;;;;;;20.30;42.10;;;;;;4359758;32;19967;-38
2021/10/02 08:24:33;;;;;;;;;;;20.30;41.80;;;;;;4359740;32;20423;-37
2021/10/02 08:26:59;;;;;;;;;;;20.30;41.30;;;;;;4359812;32;19967;-37
2021/10/02 08:29:26;;;;;;;;;;;20.40;41.10;;;;;;4359591;32;20105;-39
2021/10/02 08:31:52;;;;;;;;;;;20.30;40.80;;;;;;4359669;32;19969;-37
2021/10/02 08:34:18;;;;;;;;;;;20.20;40.80;;;;;;4360049;32;20069;-37
2021/10/02 08:36:44;;;;;;;;;;;20.30;41.00;;;;;;4359759;32;19966;-38
2021/10/02 08:39:11;;;;;;;;;;;20.30;40.80;;;;;;4359706;32;20026;-38
2021/10/02 08:41:37;;;;;;;;;;;20.30;40.60;;;;;;4359600;32;19974;-37
2021/10/02 08:44:04;;;;;;;;;;;20.40;40.40;;;;;;4346025;32;20055;-38
2021/10/02 08:46:30;;;;;;;;;;;20.50;40.30;;;;;;4345021;32;20537;-37
2021/10/02 08:49:11;;;;;;;;;;;20.50;40.20;;;;;;4345463;32;19966;-38
2021/10/02 08:51:38;;;;;;;;;;;20.60;40.30;;;;;;4346081;32;19969;-38
2021/10/02 08:54:04;;;;;;;;;;;20.60;40.20;;;;;;4333396;32;20395;-38
2021/10/02 08:56:32;;;;;;;;;;;20.60;40.20;;;;;;4358937;32;20482;-38
2021/10/02 08:59:00;;;;;;;;;;;20.60;40.30;;;;;;4359118;32;20406;-39
2021/10/02 09:01:26;;;;;;;;;;;20.50;40.00;;;;;;4345440;32;20059;-37
2021/10/02 09:03:53;;;;;;;;;;;20.50;40.00;;;;;;4359002;32;20032;-38
2021/10/02 09:06:19;;;;;;;;;;;20.40;39.90;;;;;;4359316;32;20043;-38
2021/10/02 09:08:45;;;;;;;;;;;20.40;40.00;;;;;;4345408;32;19997;-38
2021/10/02 09:11:11;;;;;;;;;;;20.30;40.00;;;;;;4359161;32;19966;-38
2021/10/02 09:13:37;;;;;;;;;;;20.30;40.10;;;;;;4358678;32;20054;-37
2021/10/02 09:16:04;;;;;;;;;;;20.20;40.10;;;;;;4358788;32;20375;-37
2021/10/02 09:18:30;;;;;;;;;;;20.20;40.30;;;;;;4332660;32;20151;-38
2021/10/02 09:21:01;;;;;;;;;;;20.20;40.40;;;;;;4344967;32;20090;-38
2021/10/02 09:23:28;;;;;;;;;;;20.20;40.30;;;;;;4344837;32;20430;-37
2021/10/02 09:25:54;;;;;;;;;;;20.20;40.30;;;;;;4359046;32;19970;-38
2021/10/02 09:28:20;;;;;;;;;;;20.20;40.40;;;;;;4344897;32;20356;-38
2021/10/02 09:30:46;;;;;;;;;;;20.20;40.30;;;;;;4345179;32;19963;-38
2021/10/02 09:33:23;;;;;;;;;;;20.10;40.20;;;;;;4345302;32;19964;-38
2021/10/02 09:35:50;;;;;;;;;;;20.10;40.40;;;;;;4358711;32;19966;-38
2021/10/02 09:38:18;;;;;;;;;;;20.20;40.50;;;;;;4344741;32;20006;-37
2021/10/02 09:41:00;;;;;;;;;;;20.20;40.20;;;;;;4332563;32;19962;-38
2021/10/02 09:43:28;;;;;;;;;;;20.10;40.30;;;;;;4358909;32;19978;-37
2021/10/02 09:45:54;;;;;;;;;;;20.10;40.40;;;;;;4344967;32;19984;-38
2021/10/02 09:48:31;;;;;;;;;;;20.10;40.40;;;;;;4358324;32;20010;-38
2021/10/02 09:51:05;;;;;;;;;;;20.10;40.40;;;;;;4358494;32;19966;-37
2021/10/02 09:53:37;;;;;;;;;;;20.00;40.40;;;;;;4358463;32;20126;-37
2021/10/02 09:56:06;;;;;;;;;;;20.00;40.60;;;;;;4358402;32;19963;-38
2021/10/02 09:58:33;;;;;;;;;;;19.90;40.90;;;;;;4358042;32;19958;-38
2021/10/02 10:01:01;;;;;;;;;;;19.80;41.10;;;;;;4344753;32;19978;-38
2021/10/02 10:03:43;;;;;;;;;;;19.70;41.20;;;;;;4358367;32;20446;-38
2021/10/02 10:06:19;;;;;;;;;;;19.60;41.40;;;;;;4358523;32;19967;-38
2021/10/02 10:09:04;;;;;;;;;;;19.40;41.70;;;;;;4358337;32;20002;-38
2021/10/02 10:11:59;;;;;;;;;;;19.30;41.90;;;;;;4358606;32;20063;-38
2021/10/02 10:14:27;;;;;;;;;;;19.30;42.10;;;;;;4296898;33;20436;-38
2021/10/02 10:16:55;;;;;;;;;;;19.20;42.10;;;;;;4296705;33;19983;-38
2021/10/02 10:19:21;;;;;;;;;;;19.10;42.10;;;;;;4284609;33;20536;-39
2021/10/02 10:22:04;;;;;;;;;;;19.00;42.00;;;;;;4296769;33;19984;-38
2021/10/02 10:24:31;;;;;;;;;;;18.90;42.10;;;;;;4296807;33;20073;-37
2021/10/02 10:26:57;;;;;;;;;;;18.90;42.20;;;;;;4297074;33;20188;-38
2021/10/02 10:29:40;;;;;;;;;;;18.80;42.30;;;;;;4296858;33;19968;-38
2021/10/02 10:32:08;;;;;;;;;;;18.80;42.30;;;;;;4297023;33;19967;-38
2021/10/02 10:34:37;;;;;;;;;;;18.80;42.50;;;;;;4285292;33;19964;-38
2021/10/02 10:37:04;;;;;;;;;;;18.80;42.40;;;;;;4296961;33;20051;-38
2021/10/02 10:39:30;;;;;;;;;;;18.70;42.30;;;;;;4285028;33;20349;-38
2021/10/02 10:41:56;;;;;;;;;;;18.70;42.40;;;;;;4296621;33;19974;-38
2021/10/02 10:44:22;;;;;;;;;;;18.70;42.40;;;;;;4285211;33;19960;-38
2021/10/02 10:46:49;;;;;;;;;;;18.70;42.30;;;;;;4296621;33;20360;-39
2021/10/02 10:49:15;;;;;;;;;;;18.70;42.30;;;;;;4296632;33;19980;-38
2021/10/02 10:51:43;;;;;;;;;;;18.60;42.50;;;;;;4352298;32;19977;-38
2021/10/02 10:54:15;;;;;;;;;;;18.50;42.40;;;;;;4372973;32;20548;-38
2021/10/02 10:56:43;;;;;;;;;;;18.50;42.60;;;;;;4372593;32;20051;-39
2021/10/02 10:59:12;;;;;;;;;;;18.40;42.60;;;;;;4358899;32;19977;-39
2021/10/02 11:01:41;;;;;;;;;;;18.40;42.80;;;;;;4358941;32;20473;-37
2021/10/02 11:04:07;;;;;;;;;;;18.30;42.70;;;;;;4372615;32;20427;-38
2021/10/02 11:06:50;;;;;;;;;;;18.20;42.70;;;;;;4358225;32;20043;-38
2021/10/02 11:09:21;;;;;;;;;;;18.20;42.90;;;;;;4373256;32;19997;-39
2021/10/02 11:11:47;;;;;;;;;;;18.20;43.00;;;;;;4337924;32;20057;-37
2021/10/02 11:14:18;;;;;;;;;;;18.20;42.90;;;;;;4375835;32;19966;-37
2021/10/02 11:16:48;;;;;;;;;;;18.20;42.90;;;;;;4375341;32;20000;-38
2021/10/02 11:19:30;;;;;;;;;;;18.10;42.90;;;;;;4375474;32;20089;-38
2021/10/02 11:22:26;;;;;;;;;;;18.00;42.80;;;;;;4375489;32;19999;-39
2021/10/02 11:24:52;;;;;;;;;;;17.90;42.70;;;;;;4375517;32;20051;-38
2021/10/02 11:27:23;;;;;;;;;;;17.80;42.80;;;;;;4375742;32;19992;-38
2021/10/02 11:29:49;;;;;;;;;;;17.70;42.80;;;;;;4375777;32;19958;-38
2021/10/02 11:32:31;;;;;;;;;;;17.60;42.80;;;;;;4361176;32;19966;-38
2021/10/02 11:35:34;;;;;;;;;;;17.60;43.00;;;;;;4375392;32;20007;-38
2021/10/02 11:38:10;;;;;;;;;;;17.50;43.00;;;;;;4375379;32;19978;-38
2021/10/02 11:40:36;;;;;;;;;;;17.30;43.00;;;;;;4375227;32;19965;-38
2021/10/02 11:43:12;;;;;;;;;;;17.30;43.30;;;;;;4375417;32;20048;-38
2021/10/02 11:45:52;;;;;;;;;;;17.30;44.00;;;;;;4375355;32;20421;-38
2021/10/02 11:48:19;;;;;;;;;;;17.30;43.20;;;;;;4356380;32;20050;-38
2021/10/02 11:50:47;;;;;;;;;;;17.30;43.10;;;;;;4360433;32;19978;-38
2021/10/02 11:53:16;;;;;;;;;;;17.30;43.00;;;;;;4346074;32;20418;-38
2021/10/02 11:55:42;;;;;;;;;;;17.30;43.10;;;;;;4359931;32;20370;-39
2021/10/02 11:58:11;;;;;;;;;;;17.30;43.10;;;;;;4360348;32;19962;-38
2021/10/02 12:00:51;;;;;;;;;;;17.30;43.30;;;;;;4360178;32;19962;-38
2021/10/02 12:03:27;;;;;;;;;;;17.30;43.20;;;;;;4360267;32;20001;-38
2021/10/02 12:05:55;;;;;;;;;;;17.40;43.30;;;;;;4360172;32;20078;-39
2021/10/02 12:08:22;;;;;;;;;;;17.40;43.20;;;;;;4360422;32;20414;-38
2021/10/02 12:11:12;;;;;;;;;;;17.50;43.20;;;;;;4360015;32;19990;-38
2021/10/02 12:13:43;;;;;;;;;;;17.50;43.00;;;;;;4352822;32;19967;-38
2021/10/02 12:16:11;;;;;;;;;;;17.50;42.80;;;;;;4359697;32;19963;-38
2021/10/02 12:18:49;;;;;;;;;;;17.50;42.70;;;;;;4359585;32;19988;-37
2021/10/02 12:21:27;;;;;;;;;;;17.60;42.70;;;;;;4359553;32;20078;-38
2021/10/02 12:24:13;;;;;;;;;;;17.60;42.70;;;;;;4360145;32;19962;-38
2021/10/02 12:26:53;;;;;;;;;;;17.60;42.80;;;;;;4359821;32;20043;-37
2021/10/02 12:29:27;;;;;;;;;;;17.70;42.60;;;;;;4359978;32;20390;-38
2021/10/02 12:31:59;;;;;;;;;;;17.70;42.40;;;;;;4360320;32;20001;-39
2021/10/02 12:34:45;;;;;;;;;;;17.80;42.30;;;;;;4359995;32;19965;-37
2021/10/02 12:37:13;;;;;;;;;;;17.80;42.30;;;;;;4359509;32;19969;-38
2021/10/02 12:39:52;;;;;;;;;;;17.70;42.20;;;;;;4359711;32;20404;-38
2021/10/02 12:42:31;;;;;;;;;;;17.70;42.10;;;;;;4359698;32;19982;-38
2021/10/02 12:44:58;;;;;;;;;;;17.70;42.20;;;;;;4359573;32;20352;-38
2021/10/02 12:47:25;;;;;;;;;;;17.70;42.20;;;;;;4360039;32;20029;-38
2021/10/02 12:49:52;;;;;;;;;;;17.70;42.30;;;;;;4360359;32;19985;-38
2021/10/02 12:52:19;;;;;;;;;;;17.80;42.30;;;;;;4360793;32;19985;-37
2021/10/02 12:54:47;;;;;;;;;;;17.70;42.10;;;;;;4374322;32;19965;-38
2021/10/02 12:57:16;;;;;;;;;;;17.70;42.10;;;;;;4374537;32;19977;-37
2021/10/02 12:59:48;;;;;;;;;;;17.70;43.00;;;;;;4373920;32;20449;-38
2021/10/02 13:02:15;;;;;;;;;;;17.70;42.30;;;;;;4374026;32;19973;-38
2021/10/02 13:04:42;;;;;;;;;;;17.70;42.20;;;;;;4360565;32;19974;-38
2021/10/02 13:07:11;;;;;;;;;;;17.70;42.20;;;;;;4373826;32;20062;-38
2021/10/02 13:10:00;;;;;;;;;;;17.70;42.20;;;;;;4335206;32;20395;-39
2021/10/02 13:12:28;;;;;;;;;;;17.70;42.20;;;;;;4373905;32;19977;-38
2021/10/02 13:14:55;;;;;;;;;;;17.70;42.30;;;;;;4374041;32;19962;-38
2021/10/02 13:17:22;;;;;;;;;;;17.70;42.30;;;;;;4374083;32;19962;-38
2021/10/02 13:19:48;;;;;;;;;;;17.70;42.20;;;;;;4374078;32;20443;-38
2021/10/02 13:22:16;;;;;;;;;;;17.70;42.20;;;;;;4373951;32;19970;-39
2021/10/02 13:25:08;;;;;;;;;;;17.70;42.00;;;;;;4373752;32;20001;-37
2021/10/02 13:27:36;;;;;;;;;;;17.70;42.00;;;;;;4373619;32;20006;-38
2021/10/02 13:30:14;;;;;;;;;;;17.70;42.10;;;;;;4374330;32;19992;-39
2021/10/02 13:32:40;;;;;;;;;;;17.70;42.10;;;;;;4372638;32;19981;-38
2021/10/02 13:35:09;;;;;;;;;;;17.60;41.90;;;;;;4373395;32;20509;-38
2021/10/02 13:37:35;;;;;;;;;;;17.60;41.90;;;;;;4373858;32;19965;-38
2021/10/02 13:40:04;;;;;;;;;;;17.60;42.60;;;;;;4373284;32;20383;-38
2021/10/02 13:42:31;;;;;;;;;;;17.60;42.00;;;;;;4373206;32;20035;-39
2021/10/02 13:44:58;;;;;;;;;;;17.70;42.00;;;;;;4373479;32;19989;-38
2021/10/02 13:47:25;;;;;;;;;;;17.70;42.00;;;;;;4372542;32;19996;-38
2021/10/02 13:49:51;;;;;;;;;;;17.70;42.00;;;;;;4358812;32;19973;-38
2021/10/02 13:52:18;;;;;;;;;;;17.70;42.10;;;;;;4358365;32;19969;-37
2021/10/02 13:54:44;;;;;;;;;;;17.60;42.00;;;;;;4344756;32;19970;-38
2021/10/02 13:57:11;;;;;;;;;;;17.50;42.10;;;;;;4344662;32;19973;-39
2021/10/02 13:59:39;;;;;;;;;;;17.50;42.20;;;;;;4344547;32;19986;-38
2021/10/02 14:02:06;;;;;;;;;;;17.50;42.30;;;;;;4345036;32;19985;-38
2021/10/02 14:04:34;;;;;;;;;;;17.50;42.30;;;;;;4358211;32;19974;-39
2021/10/02 14:07:04;;;;;;;;;;;17.50;42.30;;;;;;4358727;32;20370;-38
2021/10/02 14:09:30;;;;;;;;;;;17.60;42.30;;;;;;4358251;32;19967;-37
2021/10/02 14:11:57;;;;;;;;;;;17.60;42.10;;;;;;4358765;32;19959;-38
2021/10/02 14:14:23;;;;;;;;;;;17.60;42.10;;;;;;4358052;32;20042;-38
2021/10/02 14:16:49;;;;;;;;;;;17.60;42.10;;;;;;4357985;32;20010;-38
2021/10/02 14:19:15;;;;;;;;;;;17.60;42.10;;;;;;4358149;32;20017;-38
2021/10/02 14:21:41;;;;;;;;;;;17.60;42.10;;;;;;4358156;32;20066;-38
2021/10/02 14:24:08;;;;;;;;;;;17.60;42.30;;;;;;4358236;32;19978;-39
2021/10/02 14:26:34;;;;;;;;;;;17.60;42.30;;;;;;4358202;32;19975;-39
2021/10/02 14:29:00;;;;;;;;;;;17.50;42.30;;;;;;4358256;32;20078;-39
2021/10/02 14:31:29;;;;;;;;;;;17.50;42.30;;;;;;4357964;32;19981;-38
2021/10/02 14:33:55;;;;;;;;;;;17.50;42.40;;;;;;4358353;32;20044;-38
2021/10/02 14:36:21;;;;;;;;;;;17.50;42.50;;;;;;4358199;32;19982;-40
2021/10/02 14:38:48;;;;;;;;;;;17.40;42.40;;;;;;4344469;32;20002;-38
2021/10/02 14:41:14;;;;;;;;;;;17.40;42.40;;;;;;4357987;32;19963;-38
2021/10/02 14:43:40;;;;;;;;;;;17.30;42.60;;;;;;4358333;32;20012;-38
2021/10/02 14:46:06;;;;;;;;;;;17.30;42.80;;;;;;4361234;32;20424;-38
2021/10/02 14:48:32;;;;;;;;;;;17.20;42.90;;;;;;4347333;32;20148;-38
2021/10/02 14:50:59;;;;;;;;;;;17.20;43.00;;;;;;4361256;32;19951;-39
2021/10/02 14:53:25;;;;;;;;;;;17.10;43.00;;;;;;4347526;32;19966;-38
2021/10/02 14:55:51;;;;;;;;;;;17.00;43.10;;;;;;4316873;33;20066;-38
2021/10/02 14:58:17;;;;;;;;;;;17.00;43.10;;;;;;4304273;33;20453;-39
2021/10/02 15:00:44;;;;;;;;;;;17.00;43.20;;;;;;4328554;33;19978;-39
2021/10/02 15:03:11;;;;;;;;;;;16.90;43.10;;;;;;4328950;33;20130;-39
2021/10/02 15:05:37;;;;;;;;;;;16.90;43.10;;;;;;4328767;33;20050;-38
2021/10/02 15:08:03;;;;;;;;;;;16.90;43.10;;;;;;4329137;33;19971;-38
2021/10/02 15:10:30;;;;;;;;;;;16.90;43.00;;;;;;4328977;33;19964;-38
2021/10/02 15:12:57;;;;;;;;;;;16.90;43.00;;;;;;4328547;33;19983;-38
2021/10/02 15:15:24;;;;;;;;;;;16.80;42.80;;;;;;4304392;33;20056;-37
2021/10/02 15:17:51;;;;;;;;;;;16.80;42.60;;;;;;4328902;33;20461;-38
2021/10/02 15:20:17;;;;;;;;;;;16.60;42.20;;;;;;4328843;33;19986;-38
2021/10/02 15:22:46;;;;;;;;;;;16.50;42.40;;;;;;4328598;33;20003;-38